createdAt,value
2018-06-27T00:00:07.969Z,94.74
2018-06-27T00:01:07.996Z,94.54
2018-06-27T00:02:08.016Z,94.74
2018-06-27T00:03:08.043Z,95.03
2018-06-27T00:04:08.073Z,94.64
2018-06-27T00:05:08.094Z,94.84
2018-06-27T00:06:08.125Z,94.74
2018-06-27T00:07:08.157Z,94.64
2018-06-27T00:08:08.176Z,94.64
2018-06-27T00:09:08.200Z,95.03
2018-06-27T00:10:08.225Z,94.84
2018-06-27T00:11:08.251Z,94.64
2018-06-27T00:12:08.280Z,94.54
2018-06-27T00:13:08.304Z,94.93
2018-06-27T00:14:08.330Z,94.35
2018-06-27T00:15:08.364Z,94.74
2018-06-27T00:16:08.384Z,95.03
2018-06-27T00:17:08.409Z,94.64
2018-06-27T00:18:08.437Z,94.17
2018-06-27T00:19:08.464Z,93.97
2018-06-27T00:20:08.485Z,94.45
2018-06-27T00:21:08.511Z,94.93
2018-06-27T00:22:08.535Z,94.93
2018-06-27T00:23:08.564Z,94.74
2018-06-27T00:24:08.589Z,94.54
2018-06-27T00:25:08.614Z,94.45
2018-06-27T00:26:08.642Z,95.41
2018-06-27T00:27:08.685Z,95.60
2018-06-27T00:28:08.694Z,95.60
2018-06-27T00:29:08.718Z,96.08
2018-06-27T00:30:08.750Z,96.18
2018-06-27T00:31:08.771Z,96.18
2018-06-27T00:32:08.794Z,96.37
2018-06-27T00:33:08.821Z,96.27
2018-06-27T00:34:08.843Z,96.18
2018-06-27T00:35:08.871Z,95.21
2018-06-27T00:36:08.902Z,95.98
2018-06-27T00:37:08.923Z,95.51
2018-06-27T00:38:08.949Z,95.60
2018-06-27T00:39:08.974Z,95.79
2018-06-27T00:40:09.004Z,95.79
2018-06-27T00:41:09.029Z,96.47
2018-06-27T00:42:09.049Z,96.18
2018-06-27T00:43:09.080Z,95.84
2018-06-27T00:44:09.104Z,97.04
2018-06-27T00:45:09.130Z,97.04
2018-06-27T00:46:09.154Z,96.94
2018-06-27T00:47:09.183Z,96.56
2018-06-27T00:48:09.205Z,97.04
2018-06-27T00:49:09.232Z,96.99
2018-06-27T00:50:09.261Z,97.09
2018-06-27T00:51:09.288Z,97.47
2018-06-27T00:52:09.317Z,97.09
2018-06-27T00:53:09.340Z,96.89
2018-06-27T00:54:09.362Z,97.47
2018-06-27T00:55:09.388Z,97.09
2018-06-27T00:56:09.414Z,97.38
2018-06-27T00:57:09.435Z,97.28
2018-06-27T00:58:09.465Z,96.99
2018-06-27T00:59:09.488Z,97.38
2018-06-27T01:00:09.520Z,96.89
2018-06-27T01:01:09.537Z,97.56
2018-06-27T01:02:09.568Z,97.38
2018-06-27T01:03:09.594Z,97.18
2018-06-27T01:04:09.619Z,97.09
2018-06-27T01:05:09.644Z,97.61
2018-06-27T01:06:09.667Z,98.00
2018-06-27T01:07:09.701Z,97.95
2018-06-27T01:08:09.719Z,97.66
2018-06-27T01:09:09.747Z,97.85
2018-06-27T01:10:09.771Z,97.76
2018-06-27T01:11:09.795Z,97.95
2018-06-27T01:12:09.825Z,97.85
2018-06-27T01:13:09.846Z,97.85
2018-06-27T01:14:09.873Z,97.18
2018-06-27T01:15:09.899Z,97.47
2018-06-27T01:16:09.920Z,97.76
2018-06-27T01:17:09.946Z,98.24
2018-06-27T01:18:09.971Z,98.05
2018-06-27T01:19:10.003Z,97.85
2018-06-27T01:20:10.095Z,97.85
2018-06-27T01:21:10.050Z,97.52
2018-06-27T01:22:10.075Z,98.47
2018-06-27T01:23:10.103Z,98.33
2018-06-27T01:24:10.126Z,98.10
2018-06-27T01:25:10.152Z,98.10
2018-06-27T01:26:10.177Z,98.76
2018-06-27T01:27:10.203Z,99.01
2018-06-27T01:28:10.231Z,98.86
2018-06-27T01:29:10.254Z,99.01
2018-06-27T01:30:10.276Z,99.29
2018-06-27T01:31:10.304Z,98.62
2018-06-27T01:32:10.329Z,98.67
2018-06-27T01:33:10.356Z,98.57
2018-06-27T01:34:10.381Z,98.67
2018-06-27T01:35:10.408Z,99.34
2018-06-27T01:36:10.436Z,99.53
2018-06-27T01:37:10.454Z,99.24
2018-06-27T01:38:10.481Z,99.53
2018-06-27T01:39:10.507Z,99.24
2018-06-27T01:40:10.533Z,99.53
2018-06-27T01:41:10.555Z,99.72
2018-06-27T01:42:10.579Z,99.99
2018-06-27T01:43:10.608Z,99.53
2018-06-27T01:44:10.633Z,99.91
2018-06-27T01:45:10.660Z,99.34
2018-06-27T01:46:10.684Z,99.53
2018-06-27T01:47:10.709Z,99.05
2018-06-27T01:48:10.735Z,98.76
2018-06-27T01:49:10.764Z,98.67
2018-06-27T01:50:10.784Z,98.96
2018-06-27T01:51:10.816Z,99.24
2018-06-27T01:52:10.833Z,99.53
2018-06-27T01:53:10.861Z,99.53
2018-06-27T01:54:10.884Z,99.53
2018-06-27T01:55:10.912Z,99.99
2018-06-27T01:56:10.934Z,99.72
2018-06-27T01:57:10.961Z,99.99
2018-06-27T01:58:10.986Z,99.99
2018-06-27T01:59:11.011Z,99.91
2018-06-27T02:00:11.038Z,99.82
2018-06-27T02:01:11.062Z,99.43
2018-06-27T02:02:11.087Z,99.99
2018-06-27T02:03:11.118Z,99.99
2018-06-27T02:04:11.140Z,99.99
2018-06-27T02:05:11.166Z,99.99
2018-06-27T02:06:11.184Z,99.99
2018-06-27T02:07:11.217Z,99.99
2018-06-27T02:08:11.242Z,99.99
2018-06-27T02:09:11.262Z,99.99
2018-06-27T02:10:11.286Z,99.82
2018-06-27T02:11:11.312Z,99.99
2018-06-27T02:12:11.342Z,99.99
2018-06-27T02:13:11.365Z,99.99
2018-06-27T02:14:11.399Z,99.99
2018-06-27T02:15:11.425Z,99.99
2018-06-27T02:16:11.439Z,99.99
2018-06-27T02:17:11.461Z,99.99
2018-06-27T02:18:11.498Z,99.99
2018-06-27T02:19:11.511Z,99.99
2018-06-27T02:20:11.543Z,99.99
2018-06-27T02:21:11.561Z,99.99
2018-06-27T02:22:11.591Z,99.99
2018-06-27T02:23:11.618Z,99.99
2018-06-27T02:24:11.639Z,99.99
2018-06-27T02:25:11.661Z,99.99
2018-06-27T02:26:11.692Z,99.99
2018-06-27T02:27:11.716Z,99.99
2018-06-27T02:28:11.741Z,99.99
2018-06-27T02:29:11.777Z,99.99
2018-06-27T02:30:11.793Z,99.99
2018-06-27T02:31:11.819Z,99.99
2018-06-27T02:32:11.844Z,99.99
2018-06-27T02:33:11.869Z,99.99
2018-06-27T02:34:11.887Z,99.99
2018-06-27T02:35:11.916Z,99.99
2018-06-27T02:36:11.940Z,99.99
2018-06-27T02:37:11.966Z,99.99
2018-06-27T02:38:11.989Z,99.99
2018-06-27T02:39:12.025Z,99.99
2018-06-27T02:40:12.043Z,99.99
2018-06-27T02:41:12.066Z,99.99
2018-06-27T02:42:12.100Z,99.99
2018-06-27T02:43:12.116Z,99.99
2018-06-27T02:44:12.142Z,99.72
2018-06-27T02:45:12.165Z,99.99
2018-06-27T02:46:12.194Z,99.82
2018-06-27T02:47:12.218Z,99.99
2018-06-27T02:48:12.240Z,99.99
2018-06-27T02:49:12.269Z,99.63
2018-06-27T02:50:12.297Z,99.99
2018-06-27T02:51:12.315Z,99.72
2018-06-27T02:52:12.344Z,99.91
2018-06-27T02:53:12.364Z,99.82
2018-06-27T02:54:12.393Z,99.63
2018-06-27T02:55:12.421Z,99.24
2018-06-27T02:56:12.445Z,99.53
2018-06-27T02:57:12.467Z,99.99
2018-06-27T02:58:12.495Z,99.91
2018-06-27T02:59:12.522Z,99.99
2018-06-27T03:00:12.539Z,99.99
2018-06-27T03:01:12.567Z,99.99
2018-06-27T03:02:12.594Z,99.91
2018-06-27T03:03:12.615Z,99.82
2018-06-27T03:04:12.647Z,99.99
2018-06-27T03:05:12.668Z,99.99
2018-06-27T03:06:12.692Z,99.99
2018-06-27T03:07:12.720Z,99.63
2018-06-27T03:08:12.763Z,99.72
2018-06-27T03:09:12.764Z,99.34
2018-06-27T03:10:12.789Z,99.34
2018-06-27T03:11:12.816Z,99.05
2018-06-27T03:12:12.839Z,99.53
2018-06-27T03:13:12.882Z,99.34
2018-06-27T03:14:12.893Z,98.86
2018-06-27T03:15:12.931Z,99.34
2018-06-27T03:16:12.951Z,99.53
2018-06-27T03:17:12.971Z,99.82
2018-06-27T03:18:12.991Z,99.72
2018-06-27T03:19:13.018Z,99.34
2018-06-27T03:20:13.042Z,99.34
2018-06-27T03:21:13.067Z,99.05
2018-06-27T03:22:13.094Z,99.24
2018-06-27T03:23:13.117Z,99.99
2018-06-27T03:24:13.142Z,99.34
2018-06-27T03:25:13.169Z,99.24
2018-06-27T03:26:13.192Z,99.99
2018-06-27T03:27:13.218Z,99.91
2018-06-27T03:28:13.251Z,99.99
2018-06-27T03:29:13.270Z,99.24
2018-06-27T03:30:13.294Z,99.99
2018-06-27T03:31:13.317Z,99.72
2018-06-27T03:32:13.342Z,99.29
2018-06-27T03:33:13.371Z,99.01
2018-06-27T03:34:13.397Z,99.58
2018-06-27T03:35:13.418Z,99.48
2018-06-27T03:36:13.447Z,99.34
2018-06-27T03:37:13.467Z,98.62
2018-06-27T03:38:13.492Z,97.85
2018-06-27T03:39:13.523Z,98.33
2018-06-27T03:40:13.545Z,98.33
2018-06-27T03:41:13.572Z,97.85
2018-06-27T03:42:13.597Z,98.24
2018-06-27T03:43:13.627Z,97.85
2018-06-27T03:44:13.646Z,98.24
2018-06-27T03:45:13.672Z,98.05
2018-06-27T03:46:13.699Z,98.33
2018-06-27T03:47:13.720Z,98.33
2018-06-27T03:48:13.751Z,97.85
2018-06-27T03:49:13.771Z,97.85
2018-06-27T03:50:13.795Z,97.76
2018-06-27T03:51:13.827Z,97.95
2018-06-27T03:52:13.851Z,98.14
2018-06-27T03:53:13.884Z,97.95
2018-06-27T03:54:13.897Z,97.85
2018-06-27T03:55:13.925Z,97.66
2018-06-27T03:56:13.949Z,97.95
2018-06-27T03:57:13.975Z,98.24
2018-06-27T03:58:13.999Z,97.85
2018-06-27T03:59:14.029Z,97.95
2018-06-27T04:00:14.053Z,97.85
2018-06-27T04:01:14.074Z,97.38
2018-06-27T04:02:14.104Z,97.47
2018-06-27T04:03:14.128Z,97.56
2018-06-27T04:04:14.149Z,97.66
2018-06-27T04:05:14.176Z,97.85
2018-06-27T04:06:14.208Z,97.85
2018-06-27T04:07:14.231Z,97.56
2018-06-27T04:08:14.257Z,97.66
2018-06-27T04:09:14.282Z,97.90
2018-06-27T04:10:14.304Z,97.52
2018-06-27T04:11:14.337Z,97.42
2018-06-27T04:12:14.356Z,97.52
2018-06-27T04:13:14.448Z,97.04
2018-06-27T04:14:14.403Z,96.94
2018-06-27T04:15:14.430Z,96.85
2018-06-27T04:16:14.455Z,96.47
2018-06-27T04:17:14.485Z,96.66
2018-06-27T04:18:14.510Z,96.56
2018-06-27T04:19:14.537Z,97.14
2018-06-27T04:20:14.605Z,96.85
2018-06-27T04:21:14.588Z,97.14
2018-06-27T04:22:14.609Z,97.23
2018-06-27T04:23:14.638Z,97.23
2018-06-27T04:24:14.660Z,97.42
2018-06-27T04:25:14.684Z,97.04
2018-06-27T04:26:14.713Z,97.04
2018-06-27T04:27:14.737Z,97.23
2018-06-27T04:28:14.773Z,97.42
2018-06-27T04:29:14.783Z,96.85
2018-06-27T04:30:14.814Z,97.04
2018-06-27T04:31:14.838Z,97.23
2018-06-27T04:32:14.861Z,97.90
2018-06-27T04:33:14.885Z,97.42
2018-06-27T04:34:14.913Z,97.71
2018-06-27T04:35:14.943Z,97.71
2018-06-27T04:36:14.996Z,97.23
2018-06-27T04:37:14.992Z,97.04
2018-06-27T04:38:15.015Z,97.47
2018-06-27T04:39:15.038Z,96.51
2018-06-27T04:40:15.067Z,96.51
2018-06-27T04:41:15.088Z,97.09
2018-06-27T04:42:15.112Z,96.80
2018-06-27T04:43:15.217Z,96.70
2018-06-27T04:44:15.167Z,96.51
2018-06-27T04:45:15.195Z,96.61
2018-06-27T04:46:15.218Z,96.80
2018-06-27T04:47:15.246Z,96.70
2018-06-27T04:48:15.268Z,97.28
2018-06-27T04:49:15.292Z,96.89
2018-06-27T04:50:15.321Z,96.89
2018-06-27T04:51:15.343Z,96.70
2018-06-27T04:52:15.372Z,96.61
2018-06-27T04:53:15.398Z,96.61
2018-06-27T04:54:15.422Z,97.19
2018-06-27T04:55:15.446Z,97.47
2018-06-27T04:56:15.474Z,96.99
2018-06-27T04:57:15.498Z,96.99
2018-06-27T04:58:15.535Z,97.28
2018-06-27T04:59:15.551Z,96.99
2018-06-27T05:00:15.579Z,96.80
2018-06-27T05:01:15.600Z,96.89
2018-06-27T05:02:15.626Z,96.66
2018-06-27T05:03:15.650Z,96.42
2018-06-27T05:04:15.676Z,96.27
2018-06-27T05:05:15.706Z,96.66
2018-06-27T05:06:15.728Z,96.66
2018-06-27T05:07:15.756Z,96.75
2018-06-27T05:08:15.782Z,96.37
2018-06-27T05:09:15.805Z,96.08
2018-06-27T05:10:15.833Z,95.31
2018-06-27T05:11:15.857Z,95.31
2018-06-27T05:12:15.880Z,95.50
2018-06-27T05:13:15.914Z,95.50
2018-06-27T05:14:15.942Z,95.41
2018-06-27T05:15:15.960Z,95.12
2018-06-27T05:16:15.989Z,96.08
2018-06-27T05:17:16.010Z,96.27
2018-06-27T05:18:16.039Z,96.03
2018-06-27T05:19:16.059Z,95.50
2018-06-27T05:20:16.090Z,95.17
2018-06-27T05:21:16.114Z,96.03
2018-06-27T05:22:16.142Z,95.55
2018-06-27T05:23:16.165Z,95.55
2018-06-27T05:24:16.190Z,95.36
2018-06-27T05:25:16.219Z,95.45
2018-06-27T05:26:16.240Z,95.07
2018-06-27T05:27:16.335Z,94.98
2018-06-27T05:28:16.294Z,94.59
2018-06-27T05:29:16.323Z,95.26
2018-06-27T05:30:16.347Z,95.45
2018-06-27T05:31:16.370Z,94.59
2018-06-27T05:32:16.399Z,94.59
2018-06-27T05:33:16.425Z,94.35
2018-06-27T05:34:16.453Z,94.73
2018-06-27T05:35:16.476Z,94.06
2018-06-27T05:36:16.503Z,94.16
2018-06-27T05:37:16.537Z,94.26
2018-06-27T05:38:16.553Z,94.06
2018-06-27T05:39:16.582Z,93.96
2018-06-27T05:40:16.615Z,93.87
2018-06-27T05:41:16.634Z,93.96
2018-06-27T05:42:16.658Z,93.49
2018-06-27T05:43:16.684Z,92.72
2018-06-27T05:44:16.759Z,93.10
2018-06-27T05:45:16.739Z,93.58
2018-06-27T05:46:16.764Z,93.87
2018-06-27T05:47:16.799Z,93.87
2018-06-27T05:48:16.822Z,93.01
2018-06-27T05:49:16.844Z,94.35
2018-06-27T05:50:16.916Z,94.06
2018-06-27T05:51:16.898Z,93.87
2018-06-27T05:52:16.930Z,93.19
2018-06-27T05:53:16.951Z,93.68
2018-06-27T05:54:16.972Z,93.10
2018-06-27T05:55:17.001Z,93.39
2018-06-27T05:56:17.023Z,93.19
2018-06-27T05:57:17.056Z,93.58
2018-06-27T05:58:17.159Z,92.91
2018-06-27T05:59:17.113Z,93.49
2018-06-27T06:00:17.131Z,93.01
2018-06-27T06:01:17.157Z,93.01
2018-06-27T06:02:17.181Z,93.10
2018-06-27T06:03:17.210Z,93.68
2018-06-27T06:04:17.287Z,93.49
2018-06-27T06:05:17.258Z,93.39
2018-06-27T06:06:17.291Z,92.91
2018-06-27T06:07:17.311Z,94.06
2018-06-27T06:08:17.340Z,92.91
2018-06-27T06:09:17.371Z,93.01
2018-06-27T06:10:17.396Z,93.10
2018-06-27T06:11:17.545Z,93.01
2018-06-27T06:12:17.440Z,93.05
2018-06-27T06:13:17.474Z,92.19
2018-06-27T06:14:17.496Z,92.38
2018-06-27T06:15:17.521Z,91.71
2018-06-27T06:16:17.547Z,92.19
2018-06-27T06:17:17.576Z,91.90
2018-06-27T06:18:17.604Z,91.52
2018-06-27T06:19:17.629Z,92.29
2018-06-27T06:20:17.651Z,91.99
2018-06-27T06:21:17.686Z,92.38
2018-06-27T06:22:17.715Z,91.99
2018-06-27T06:23:17.758Z,92.38
2018-06-27T06:24:17.758Z,91.71
2018-06-27T06:25:17.784Z,91.52
2018-06-27T06:26:17.811Z,91.71
2018-06-27T06:27:17.838Z,91.99
2018-06-27T06:28:17.865Z,91.71
2018-06-27T06:29:17.891Z,91.80
2018-06-27T06:30:17.926Z,92.38
2018-06-27T06:31:17.940Z,92.47
2018-06-27T06:32:18.075Z,92.19
2018-06-27T06:33:17.993Z,91.52
2018-06-27T06:34:18.037Z,90.94
2018-06-27T06:35:18.048Z,89.78
2018-06-27T06:36:18.075Z,89.50
2018-06-27T06:37:18.105Z,87.76
2018-06-27T06:38:18.124Z,86.61
2018-06-27T06:39:18.150Z,84.69
2018-06-27T06:40:18.187Z,84.01
2018-06-27T06:41:18.205Z,84.59
2018-06-27T06:42:18.229Z,84.01
2018-06-27T06:43:18.254Z,84.16
2018-06-27T06:44:18.294Z,83.00
2018-06-27T06:45:18.303Z,83.29
2018-06-27T06:46:18.339Z,82.52
2018-06-27T06:47:18.359Z,81.75
2018-06-27T06:48:18.386Z,80.50
2018-06-27T06:49:18.416Z,79.73
2018-06-27T06:50:18.441Z,79.82
2018-06-27T06:51:18.467Z,80.11
2018-06-27T06:52:18.494Z,79.38
2018-06-27T06:53:18.521Z,78.61
2018-06-27T06:54:18.548Z,76.88
2018-06-27T06:55:18.573Z,74.57
2018-06-27T06:56:18.594Z,73.99
2018-06-27T06:57:18.632Z,73.22
2018-06-27T06:58:18.652Z,73.99
2018-06-27T06:59:18.674Z,73.71
2018-06-27T07:00:18.706Z,73.51
2018-06-27T07:01:18.729Z,73.61
2018-06-27T07:02:18.754Z,73.65
2018-06-27T07:03:18.783Z,73.13
2018-06-27T07:04:18.805Z,70.82
2018-06-27T07:05:18.832Z,69.18
2018-06-27T07:06:18.867Z,68.32
2018-06-27T07:07:18.888Z,68.70
2018-06-27T07:08:18.916Z,68.60
2018-06-27T07:09:18.941Z,68.90
2018-06-27T07:10:18.970Z,68.90
2018-06-27T07:11:19.203Z,68.51
2018-06-27T07:12:19.025Z,68.80
2018-06-27T07:13:19.053Z,68.64
2018-06-27T07:14:19.073Z,68.44
2018-06-27T07:15:19.105Z,67.19
2018-06-27T07:16:19.133Z,67.00
2018-06-27T07:17:19.161Z,64.59
2018-06-27T07:18:19.190Z,64.21
2018-06-27T07:19:19.225Z,64.40
2018-06-27T07:20:19.243Z,64.31
2018-06-27T07:21:19.268Z,64.12
2018-06-27T07:22:19.288Z,63.44
2018-06-27T07:23:19.320Z,63.47
2018-06-27T07:24:19.345Z,63.28
2018-06-27T07:25:19.372Z,62.90
2018-06-27T07:26:19.400Z,63.09
2018-06-27T07:27:19.423Z,64.53
2018-06-27T07:28:19.466Z,64.15
2018-06-27T07:29:19.472Z,62.80
2018-06-27T07:30:19.515Z,63.95
2018-06-27T07:31:19.535Z,64.05
2018-06-27T07:32:19.559Z,64.15
2018-06-27T07:33:19.587Z,65.17
2018-06-27T07:34:19.612Z,65.37
2018-06-27T07:35:19.641Z,64.79
2018-06-27T07:36:19.671Z,65.08
2018-06-27T07:37:19.697Z,66.04
2018-06-27T07:38:19.719Z,64.89
2018-06-27T07:39:19.746Z,65.27
2018-06-27T07:40:19.773Z,62.77
2018-06-27T07:41:19.802Z,62.48
2018-06-27T07:42:19.826Z,62.19
2018-06-27T07:43:19.855Z,62.48
2018-06-27T07:44:19.883Z,62.38
2018-06-27T07:45:19.911Z,62.38
2018-06-27T07:46:19.935Z,61.90
2018-06-27T07:47:19.959Z,61.32
2018-06-27T07:48:19.990Z,62.48
2018-06-27T07:49:20.011Z,63.15
2018-06-27T07:50:20.045Z,64.50
2018-06-27T07:51:20.068Z,64.40
2018-06-27T07:52:20.091Z,64.21
2018-06-27T07:53:20.124Z,64.40
2018-06-27T07:54:20.150Z,63.82
2018-06-27T07:55:20.176Z,64.21
2018-06-27T07:56:20.200Z,64.40
2018-06-27T07:57:20.233Z,64.31
2018-06-27T07:58:20.264Z,64.50
2018-06-27T07:59:20.280Z,62.77
2018-06-27T08:00:20.315Z,63.34
2018-06-27T08:01:20.334Z,63.34
2018-06-27T08:02:20.358Z,62.00
2018-06-27T08:03:20.384Z,61.04
2018-06-27T08:04:20.420Z,60.46
2018-06-27T08:05:20.443Z,60.84
2018-06-27T08:06:20.466Z,61.32
2018-06-27T08:07:20.495Z,61.61
2018-06-27T08:08:20.520Z,61.65
2018-06-27T08:09:20.550Z,61.93
2018-06-27T08:10:20.629Z,61.55
2018-06-27T08:11:20.599Z,60.87
2018-06-27T08:12:20.651Z,58.95
2018-06-27T08:13:20.652Z,57.40
2018-06-27T08:14:20.680Z,57.12
2018-06-27T08:15:20.708Z,57.60
2018-06-27T08:16:20.733Z,57.82
2018-06-27T08:17:20.764Z,58.59
2018-06-27T08:18:20.807Z,59.45
2018-06-27T08:19:20.819Z,58.01
2018-06-27T08:20:20.848Z,57.34
2018-06-27T08:21:20.868Z,56.40
2018-06-27T08:22:20.893Z,56.01
2018-06-27T08:23:20.928Z,55.73
2018-06-27T08:24:20.948Z,54.50
2018-06-27T08:25:20.983Z,54.02
2018-06-27T08:26:21.167Z,54.82
2018-06-27T08:27:21.034Z,53.97
2018-06-27T08:28:21.067Z,53.78
2018-06-27T08:29:21.085Z,53.69
2018-06-27T08:30:21.117Z,52.26
2018-06-27T08:31:21.147Z,51.78
2018-06-27T08:32:21.171Z,52.07
2018-06-27T08:33:21.192Z,51.87
2018-06-27T08:34:21.229Z,51.13
2018-06-27T08:35:21.248Z,51.49
2018-06-27T08:36:21.280Z,50.26
2018-06-27T08:37:21.317Z,50.04
2018-06-27T08:38:21.334Z,49.85
2018-06-27T08:39:21.365Z,50.71
2018-06-27T08:40:21.396Z,49.75
2018-06-27T08:41:21.420Z,50.43
2018-06-27T08:42:21.448Z,49.46
2018-06-27T08:43:21.475Z,49.65
2018-06-27T08:44:21.541Z,49.95
2018-06-27T08:45:21.532Z,48.59
2018-06-27T08:46:21.565Z,47.81
2018-06-27T08:47:21.584Z,48.66
2018-06-27T08:48:21.619Z,49.82
2018-06-27T08:49:21.645Z,49.53
2018-06-27T08:50:21.671Z,49.73
2018-06-27T08:51:21.715Z,50.01
2018-06-27T08:52:21.731Z,50.69
2018-06-27T08:53:21.759Z,50.57
2018-06-27T08:54:21.790Z,51.63
2018-06-27T08:55:21.808Z,52.01
2018-06-27T08:56:21.838Z,52.21
2018-06-27T08:57:21.867Z,52.89
2018-06-27T08:58:21.894Z,52.69
2018-06-27T08:59:21.921Z,52.79
2018-06-27T09:00:21.951Z,52.59
2018-06-27T09:01:21.976Z,52.01
2018-06-27T09:02:22.005Z,51.63
2018-06-27T09:03:22.035Z,51.53
2018-06-27T09:04:22.066Z,50.57
2018-06-27T09:05:22.090Z,50.38
2018-06-27T09:06:22.118Z,49.99
2018-06-27T09:07:22.145Z,51.25
2018-06-27T09:08:22.173Z,52.01
2018-06-27T09:09:22.199Z,52.19
2018-06-27T09:10:22.231Z,51.61
2018-06-27T09:11:22.254Z,50.64
2018-06-27T09:12:22.285Z,50.26
2018-06-27T09:13:22.311Z,50.45
2018-06-27T09:14:22.340Z,51.12
2018-06-27T09:15:22.366Z,50.54
2018-06-27T09:16:22.397Z,50.64
2018-06-27T09:17:22.427Z,51.34
2018-06-27T09:18:22.454Z,50.96
2018-06-27T09:19:22.478Z,51.53
2018-06-27T09:20:22.502Z,52.19
2018-06-27T09:21:22.530Z,51.61
2018-06-27T09:22:22.555Z,51.70
2018-06-27T09:23:22.589Z,50.93
2018-06-27T09:24:22.614Z,51.34
2018-06-27T09:25:22.637Z,51.89
2018-06-27T09:26:22.665Z,51.61
2018-06-27T09:27:22.695Z,51.82
2018-06-27T09:28:22.725Z,52.11
2018-06-27T09:29:22.750Z,52.50
2018-06-27T09:30:22.777Z,52.28
2018-06-27T09:31:22.811Z,53.95
2018-06-27T09:32:22.834Z,53.17
2018-06-27T09:33:22.857Z,52.79
2018-06-27T09:34:22.888Z,53.56
2018-06-27T09:35:22.914Z,52.98
2018-06-27T09:36:22.944Z,52.40
2018-06-27T09:37:22.965Z,52.21
2018-06-27T09:38:22.997Z,52.59
2018-06-27T09:39:23.024Z,51.82
2018-06-27T09:40:23.056Z,52.21
2018-06-27T09:41:23.078Z,52.11
2018-06-27T09:42:23.107Z,51.82
2018-06-27T09:43:23.134Z,51.53
2018-06-27T09:44:23.159Z,51.82
2018-06-27T09:45:23.184Z,51.75
2018-06-27T09:46:23.218Z,51.65
2018-06-27T09:47:23.248Z,50.98
2018-06-27T09:48:23.268Z,51.07
2018-06-27T09:49:23.297Z,51.27
2018-06-27T09:50:23.357Z,50.59
2018-06-27T09:51:23.349Z,50.59
2018-06-27T09:52:23.380Z,51.37
2018-06-27T09:53:23.403Z,51.65
2018-06-27T09:54:23.430Z,51.85
2018-06-27T09:55:23.461Z,51.87
2018-06-27T09:56:23.488Z,51.97
2018-06-27T09:57:23.514Z,51.87
2018-06-27T09:58:23.544Z,50.91
2018-06-27T09:59:23.567Z,50.26
2018-06-27T10:00:23.602Z,49.29
2018-06-27T10:01:23.632Z,49.49
2018-06-27T10:02:23.652Z,50.55
2018-06-27T10:03:23.677Z,51.83
2018-06-27T10:04:23.707Z,50.55
2018-06-27T10:05:23.732Z,50.45
2018-06-27T10:06:23.763Z,49.68
2018-06-27T10:07:23.789Z,49.29
2018-06-27T10:08:23.826Z,49.29
2018-06-27T10:09:23.845Z,49.19
2018-06-27T10:10:23.868Z,48.71
2018-06-27T10:11:23.908Z,48.90
2018-06-27T10:12:23.928Z,48.71
2018-06-27T10:13:23.964Z,49.41
2018-06-27T10:14:23.983Z,48.35
2018-06-27T10:15:24.014Z,47.28
2018-06-27T10:16:24.037Z,47.11
2018-06-27T10:17:24.074Z,46.44
2018-06-27T10:18:24.095Z,47.31
2018-06-27T10:19:24.123Z,46.83
2018-06-27T10:20:24.152Z,46.63
2018-06-27T10:21:24.183Z,45.76
2018-06-27T10:22:24.265Z,45.37
2018-06-27T10:23:24.236Z,45.76
2018-06-27T10:24:24.266Z,45.66
2018-06-27T10:25:24.292Z,45.76
2018-06-27T10:26:24.315Z,45.76
2018-06-27T10:27:24.346Z,45.08
2018-06-27T10:28:24.432Z,45.76
2018-06-27T10:29:24.405Z,45.76
2018-06-27T10:30:24.428Z,45.28
2018-06-27T10:31:24.455Z,44.98
2018-06-27T10:32:24.485Z,45.18
2018-06-27T10:33:24.510Z,45.95
2018-06-27T10:34:24.541Z,46.83
2018-06-27T10:35:24.573Z,46.25
2018-06-27T10:36:24.602Z,46.05
2018-06-27T10:37:24.618Z,46.46
2018-06-27T10:38:24.656Z,46.46
2018-06-27T10:39:24.675Z,46.17
2018-06-27T10:40:24.709Z,45.98
2018-06-27T10:41:24.734Z,46.36
2018-06-27T10:42:24.763Z,46.08
2018-06-27T10:43:24.794Z,46.46
2018-06-27T10:44:24.833Z,45.98
2018-06-27T10:45:24.849Z,46.56
2018-06-27T10:46:24.878Z,45.78
2018-06-27T10:47:24.907Z,46.56
2018-06-27T10:48:24.928Z,45.20
2018-06-27T10:49:24.958Z,45.68
2018-06-27T10:50:24.987Z,46.39
2018-06-27T10:51:25.015Z,46.19
2018-06-27T10:52:25.039Z,46.00
2018-06-27T10:53:25.070Z,46.00
2018-06-27T10:54:25.095Z,46.19
2018-06-27T10:55:25.123Z,45.03
2018-06-27T10:56:25.172Z,46.58
2018-06-27T10:57:25.180Z,46.00
2018-06-27T10:58:25.209Z,46.39
2018-06-27T10:59:25.243Z,46.87
2018-06-27T11:00:25.275Z,46.12
2018-06-27T11:01:25.291Z,45.44
2018-06-27T11:02:25.318Z,45.83
2018-06-27T11:03:25.357Z,44.09
2018-06-27T11:04:25.383Z,43.23
2018-06-27T11:05:25.449Z,42.85
2018-06-27T11:06:25.437Z,42.94
2018-06-27T11:07:25.459Z,42.36
2018-06-27T11:08:25.493Z,42.57
2018-06-27T11:09:25.521Z,42.50
2018-06-27T11:10:25.549Z,40.46
2018-06-27T11:11:25.582Z,39.51
2018-06-27T11:12:25.622Z,39.53
2018-06-27T11:13:25.638Z,38.40
2018-06-27T11:14:25.663Z,37.29
2018-06-27T11:15:25.702Z,34.52
2018-06-27T11:16:25.739Z,33.07
2018-06-27T11:17:25.759Z,32.40
2018-06-27T11:18:25.788Z,30.77
2018-06-27T11:19:25.819Z,30.23
2018-06-27T11:20:25.915Z,28.79
2018-06-27T11:21:25.888Z,29.50
2018-06-27T11:22:25.919Z,27.75
2018-06-27T11:23:25.949Z,26.90
2018-06-27T11:24:25.989Z,25.79
2018-06-27T11:25:26.015Z,26.31
2018-06-27T11:26:26.052Z,25.55
2018-06-27T11:27:26.084Z,25.77
2018-06-27T11:28:26.121Z,23.91
2018-06-27T11:29:26.175Z,23.42
2018-06-27T11:30:26.190Z,23.22
2018-06-27T11:31:26.224Z,23.41
2018-06-27T11:32:26.265Z,23.03
2018-06-27T11:33:26.299Z,22.84
2018-06-27T11:34:26.329Z,23.53
2018-06-27T11:35:26.373Z,23.25
2018-06-27T11:36:26.410Z,22.75
2018-06-27T11:37:26.439Z,22.56
2018-06-27T11:38:26.565Z,22.09
2018-06-27T11:39:26.515Z,20.83
2018-06-27T11:40:26.557Z,20.83
2018-06-27T11:41:26.588Z,20.42
2018-06-27T11:42:26.618Z,21.66
2018-06-27T11:43:26.662Z,22.52
2018-06-27T11:44:26.712Z,22.71
2018-06-27T11:45:26.738Z,22.34
2018-06-27T11:46:26.768Z,21.97
2018-06-27T11:47:26.816Z,21.88
2018-06-27T11:48:26.847Z,21.31
2018-06-27T11:49:26.904Z,20.62
2018-06-27T11:50:26.920Z,20.14
2018-06-27T11:51:26.959Z,19.74
2018-06-27T11:52:27.001Z,20.24
2018-06-27T11:53:27.085Z,21.03
2018-06-27T11:54:27.072Z,20.42
2018-06-27T11:55:27.107Z,21.68
2018-06-27T11:56:27.152Z,21.21
2018-06-27T11:57:27.181Z,20.10
2018-06-27T11:58:27.225Z,21.76
2018-06-27T11:59:27.264Z,22.08
2018-06-27T12:00:27.301Z,20.34
2018-06-27T12:01:27.339Z,18.88
2018-06-27T12:02:27.378Z,19.15
2018-06-27T12:03:27.412Z,18.85
2018-06-27T12:04:27.456Z,19.73
2018-06-27T12:05:27.491Z,19.82
2018-06-27T12:06:28.947Z,19.64
2018-06-27T12:07:27.571Z,19.57
2018-06-27T12:08:27.649Z,18.69
2018-06-27T12:09:27.687Z,17.80
2018-06-27T12:10:27.878Z,18.08
2018-06-27T12:11:27.723Z,19.26
2018-06-27T12:12:27.763Z,18.87
2018-06-27T12:13:27.801Z,18.58
2018-06-27T12:14:27.841Z,17.72
2018-06-27T12:15:27.880Z,17.80
2018-06-27T12:16:27.920Z,18.01
2018-06-27T12:17:27.960Z,17.04
2018-06-27T12:18:27.997Z,18.59
2018-06-27T12:19:28.034Z,18.60
2018-06-27T12:20:28.076Z,17.33
2018-06-27T12:21:28.114Z,17.34
2018-06-27T12:22:28.157Z,17.03
2018-06-27T12:23:28.195Z,17.03
2018-06-27T12:24:28.236Z,16.55
2018-06-27T12:25:28.276Z,16.46
2018-06-27T12:26:28.347Z,16.94
2018-06-27T12:27:28.353Z,16.06
2018-06-27T12:28:28.391Z,16.27
2018-06-27T12:29:28.433Z,16.16
2018-06-27T12:30:28.473Z,14.69
2018-06-27T12:31:28.509Z,14.58
2018-06-27T12:32:28.613Z,15.48
2018-06-27T12:33:28.590Z,15.18
2018-06-27T12:34:28.632Z,15.39
2018-06-27T12:35:28.671Z,15.79
2018-06-27T12:36:28.715Z,15.09
2018-06-27T12:37:28.756Z,15.00
2018-06-27T12:38:28.798Z,14.80
2018-06-27T12:39:28.837Z,15.90
2018-06-27T12:40:28.875Z,15.00
2018-06-27T12:41:28.920Z,14.70
2018-06-27T12:42:28.955Z,15.64
2018-06-27T12:43:29.001Z,16.74
2018-06-27T12:44:29.088Z,18.37
2018-06-27T12:45:29.118Z,17.41
2018-06-27T12:46:29.127Z,17.42
2018-06-27T12:47:29.162Z,17.80
2018-06-27T12:48:29.204Z,17.12
2018-06-27T12:49:29.247Z,16.17
2018-06-27T12:50:29.289Z,15.60
2018-06-27T12:51:29.323Z,15.41
2018-06-27T12:52:29.368Z,14.72